createdAt,value
2022-08-25T00:01:32.170Z,69.99
2022-08-25T00:05:48.766Z,70.17
2022-08-25T00:58:31.152Z,69.63
2022-08-25T01:02:47.367Z,69.56
2022-08-25T01:07:04.041Z,69.28
2022-08-25T01:11:20.540Z,69.05
2022-08-25T01:15:36.727Z,69.11
2022-08-25T01:19:55.574Z,69.10
2022-08-25T01:24:16.251Z,68.89
2022-08-25T01:28:32.298Z,68.98
2022-08-25T01:32:48.958Z,68.55
2022-08-25T01:37:05.679Z,67.78
2022-08-25T01:41:55.994Z,67.60
2022-08-25T01:46:12.668Z,68.64
2022-08-25T01:50:29.151Z,68.80
2022-08-25T01:54:45.357Z,68.87
2022-08-25T01:59:01.579Z,69.03
2022-08-25T02:03:19.405Z,67.84
2022-08-25T02:07:36.554Z,66.90
2022-08-25T02:11:53.619Z,67.67
2022-08-25T02:16:10.952Z,68.16
2022-08-25T02:20:27.123Z,66.64
2022-08-25T02:24:43.204Z,68.04
2022-08-25T02:28:59.259Z,68.54
2022-08-25T02:33:15.248Z,68.02
2022-08-25T02:37:31.305Z,67.70
2022-08-25T02:41:47.425Z,67.88
2022-08-25T02:46:03.493Z,68.54
2022-08-25T02:50:22.334Z,68.89
2022-08-25T02:54:38.558Z,68.89
2022-08-25T02:58:54.813Z,68.75
2022-08-25T03:03:10.826Z,69.09
2022-08-25T03:07:26.887Z,69.26
2022-08-25T03:11:43.983Z,68.75
2022-08-25T03:16:01.328Z,68.97
2022-08-25T03:20:19.687Z,68.73
2022-08-25T03:24:35.658Z,68.04
2022-08-25T03:28:51.696Z,66.57
2022-08-25T03:33:07.869Z,66.87
2022-08-25T03:37:24.014Z,67.74
2022-08-25T03:41:40.245Z,68.22
2022-08-25T03:45:57.244Z,67.11
2022-08-25T03:50:13.982Z,67.48
2022-08-25T03:54:30.249Z,67.84
2022-08-25T03:58:46.639Z,67.99
2022-08-25T04:03:02.742Z,68.43
2022-08-25T04:07:18.755Z,68.37
2022-08-25T04:11:34.800Z,69.12
2022-08-25T04:15:51.122Z,69.02
2022-08-25T04:20:10.160Z,68.95
2022-08-25T04:24:30.090Z,68.94
2022-08-25T04:28:46.806Z,68.51
2022-08-25T04:33:02.956Z,68.69
2022-08-25T04:37:18.951Z,68.95
2022-08-25T04:41:35.144Z,68.89
2022-08-25T04:45:52.300Z,68.93
2022-08-25T04:50:08.763Z,69.51
2022-08-25T04:54:25.314Z,68.95
2022-08-25T04:58:41.763Z,68.75
2022-08-25T05:02:57.790Z,68.75
2022-08-25T05:07:13.826Z,69.18
2022-08-25T05:11:30.214Z,68.59
2022-08-25T05:16:00.225Z,68.96
2022-08-25T05:20:16.540Z,68.12
2022-08-25T05:24:32.733Z,68.81
2022-08-25T05:28:51.404Z,68.66
2022-08-25T05:33:07.958Z,68.50
2022-08-25T05:37:23.895Z,68.01
2022-08-25T05:41:39.825Z,68.25
2022-08-25T05:45:57.908Z,68.15
2022-08-25T05:50:13.890Z,67.87
2022-08-25T05:54:31.721Z,67.86
2022-08-25T05:58:48.181Z,67.96
2022-08-25T06:03:04.189Z,67.97
2022-08-25T06:07:20.551Z,67.46
2022-08-25T06:11:38.151Z,67.61
2022-08-25T06:15:58.888Z,67.15
2022-08-25T06:20:18.287Z,66.72
2022-08-25T06:24:34.421Z,66.79
2022-08-25T06:28:51.523Z,67.66
2022-08-25T06:33:07.481Z,66.72
2022-08-25T06:37:25.281Z,67.12
2022-08-25T06:41:41.391Z,67.28
2022-08-25T06:45:57.386Z,66.11
2022-08-25T06:50:13.605Z,66.99
2022-08-25T06:54:29.833Z,67.52
2022-08-25T06:58:46.202Z,69.57
2022-08-25T07:03:02.761Z,67.66
2022-08-25T07:07:19.433Z,66.71
2022-08-25T07:11:35.552Z,65.19
2022-08-25T07:15:55.341Z,65.05
2022-08-25T07:20:13.754Z,64.63
2022-08-25T07:24:29.957Z,63.08
2022-08-25T07:28:47.429Z,63.00
2022-08-25T07:33:06.732Z,63.98
2022-08-25T07:37:48.446Z,63.58
2022-08-25T07:42:00.121Z,64.96
2022-08-25T07:46:18.086Z,62.12
2022-08-25T07:50:35.486Z,60.98
2022-08-25T07:54:54.039Z,60.76
2022-08-25T07:59:12.550Z,60.76
2022-08-25T08:03:45.092Z,59.41
2022-08-25T08:08:06.540Z,60.67
2022-08-25T08:12:23.568Z,60.42
2022-08-25T08:16:40.161Z,59.83
2022-08-25T08:20:58.219Z,58.80
2022-08-25T08:25:18.649Z,60.38
2022-08-25T08:29:38.256Z,59.62
2022-08-25T08:33:55.679Z,59.21
2022-08-25T08:38:17.310Z,58.00
2022-08-25T08:42:51.994Z,57.92
2022-08-25T08:47:36.400Z,58.66
2022-08-25T08:51:59.658Z,59.49
2022-08-25T08:56:23.655Z,58.24
2022-08-25T09:00:52.616Z,59.48
2022-08-25T09:05:12.436Z,59.07
2022-08-25T09:09:35.755Z,57.71
2022-08-25T09:14:18.537Z,57.04
2022-08-25T09:18:52.721Z,57.72
2022-08-25T09:23:26.513Z,56.76
2022-08-25T09:28:07.922Z,57.83
2022-08-25T09:32:31.448Z,57.28
2022-08-25T09:36:51.025Z,56.84
2022-08-25T09:41:08.683Z,54.49
2022-08-25T09:45:35.921Z,54.59
2022-08-25T09:50:04.565Z,54.59
2022-08-25T09:54:25.374Z,54.92
2022-08-25T09:58:41.665Z,53.54
2022-08-25T10:03:22.685Z,51.72
2022-08-25T10:07:51.908Z,50.28
2022-08-25T10:12:42.533Z,46.04
2022-08-25T10:17:27.592Z,47.45
2022-08-25T10:21:44.289Z,48.40
2022-08-25T10:26:08.853Z,45.67
2022-08-25T10:31:00.295Z,46.38
2022-08-25T10:35:23.126Z,47.11
2022-08-25T10:39:44.109Z,47.15
2022-08-25T10:45:03.077Z,47.43
2022-08-25T10:49:30.921Z,45.53
2022-08-25T10:54:16.375Z,42.77
2022-08-25T10:58:48.482Z,43.13
2022-08-25T11:03:26.794Z,42.97
2022-08-25T11:08:13.495Z,41.67
2022-08-25T11:12:35.096Z,40.35
2022-08-25T11:16:58.205Z,39.31
2022-08-25T11:21:18.953Z,40.48
2022-08-25T11:25:43.918Z,39.83
2022-08-25T11:30:06.150Z,40.41
2022-08-25T11:34:23.408Z,38.33
2022-08-25T11:38:57.330Z,39.96
2022-08-25T11:43:27.577Z,38.10
2022-08-25T11:48:22.153Z,39.03
2022-08-25T11:52:49.327Z,36.51
2022-08-25T11:57:17.228Z,37.28
2022-08-25T12:01:40.573Z,36.41
2022-08-25T12:06:16.665Z,36.63
2022-08-25T12:10:52.787Z,35.93
2022-08-25T12:15:20.599Z,38.87
2022-08-25T12:19:38.065Z,36.45
2022-08-25T12:24:15.929Z,38.20
2022-08-25T12:28:42.438Z,38.43
2022-08-25T12:33:20.349Z,36.96
2022-08-25T12:37:53.129Z,37.51
2022-08-25T12:42:26.255Z,36.87
2022-08-25T12:46:44.753Z,36.47
2022-08-25T12:51:17.436Z,37.87
2022-08-25T12:55:33.698Z,37.36
2022-08-25T12:59:56.430Z,36.68
2022-08-25T13:04:24.313Z,37.88
2022-08-25T13:08:46.654Z,35.83
2022-08-25T13:13:18.048Z,37.31
2022-08-25T13:17:35.722Z,37.07
2022-08-25T13:21:51.908Z,37.33
2022-08-25T13:26:21.411Z,38.64
2022-08-25T13:30:39.282Z,37.00
2022-08-25T13:35:12.080Z,37.12
2022-08-25T13:39:53.107Z,36.19
2022-08-25T13:44:13.224Z,35.16
2022-08-25T13:48:49.588Z,33.80
2022-08-25T13:53:11.559Z,32.42
2022-08-25T13:57:31.166Z,32.23
2022-08-25T14:01:49.933Z,32.29
2022-08-25T14:06:08.276Z,33.83
2022-08-25T14:10:42.315Z,33.91
2022-08-25T14:15:13.770Z,35.28
2022-08-25T14:19:30.786Z,35.32
2022-08-25T14:23:46.806Z,36.04
2022-08-25T14:28:07.372Z,36.35
2022-08-25T14:32:32.979Z,34.15
2022-08-25T14:36:49.985Z,34.60
2022-08-25T14:45:28.335Z,32.77
2022-08-25T14:49:45.961Z,33.45
2022-08-25T14:54:05.495Z,35.23
2022-08-25T14:58:26.018Z,35.25
2022-08-25T15:02:45.710Z,35.04
2022-08-25T15:07:22.775Z,34.01
2022-08-25T15:11:52.307Z,35.25
2022-08-25T15:16:11.771Z,35.09
2022-08-25T15:20:27.958Z,33.22
2022-08-25T15:24:45.375Z,32.73
2022-08-25T15:29:01.358Z,34.67
2022-08-25T15:33:17.633Z,33.58
2022-08-25T15:37:35.745Z,32.61
2022-08-25T15:41:53.820Z,33.13
2022-08-25T15:46:09.962Z,33.47
2022-08-25T15:50:26.988Z,33.29
2022-08-25T15:54:43.025Z,32.28
2022-08-25T15:59:03.396Z,31.96
2022-08-25T16:03:19.442Z,33.77
2022-08-25T16:07:36.298Z,32.70
2022-08-25T16:11:56.302Z,33.87
2022-08-25T16:16:13.710Z,34.20
2022-08-25T16:20:31.050Z,33.79
2022-08-25T16:24:47.237Z,33.82
2022-08-25T16:29:06.433Z,35.34
2022-08-25T16:33:22.993Z,35.64
2022-08-25T16:37:39.493Z,35.64
2022-08-25T16:41:56.633Z,35.93
2022-08-25T16:46:15.476Z,36.73
2022-08-25T16:50:34.637Z,37.52
2022-08-25T16:55:09.596Z,38.27
2022-08-25T16:59:26.613Z,38.79
2022-08-25T17:03:44.168Z,39.56
2022-08-25T17:08:19.785Z,39.02
2022-08-25T17:12:35.950Z,39.63
2022-08-25T17:16:54.843Z,39.93
2022-08-25T17:21:12.924Z,40.68
2022-08-25T17:25:36.971Z,41.54
2022-08-25T17:29:57.341Z,42.86
2022-08-25T17:34:16.549Z,42.95
2022-08-25T17:38:33.902Z,43.19
2022-08-25T17:42:49.997Z,44.32
2022-08-25T17:47:07.924Z,45.07
2022-08-25T17:51:24.159Z,46.03
2022-08-25T17:55:43.109Z,45.91
2022-08-25T17:59:59.817Z,46.97
2022-08-25T18:04:23.323Z,47.20
2022-08-25T18:08:45.261Z,47.16
2022-08-25T18:13:08.183Z,47.67
2022-08-25T18:17:24.180Z,48.07
2022-08-25T18:21:43.354Z,47.82
2022-08-25T18:26:00.935Z,48.36
2022-08-25T18:30:17.351Z,49.20
2022-08-25T18:34:34.059Z,49.60
2022-08-25T18:39:10.619Z,49.93
2022-08-25T18:43:31.915Z,49.46
2022-08-25T18:47:56.449Z,49.75
2022-08-25T18:52:13.045Z,50.08
2022-08-25T18:56:29.468Z,50.86
2022-08-25T19:00:45.982Z,51.23
2022-08-25T19:05:07.417Z,51.88
2022-08-25T19:09:23.806Z,52.13
2022-08-25T19:13:40.397Z,52.89
2022-08-25T19:17:58.941Z,52.87
2022-08-25T19:22:38.219Z,51.91
2022-08-25T19:26:54.482Z,52.70
2022-08-25T19:31:10.877Z,52.83
2022-08-25T19:35:39.466Z,52.45
2022-08-25T19:40:02.527Z,52.62
2022-08-25T19:44:21.059Z,52.63
2022-08-25T19:48:37.293Z,52.95
2022-08-25T19:52:54.106Z,53.08
2022-08-25T19:57:11.550Z,54.11
2022-08-25T20:01:27.893Z,54.08
2022-08-25T20:05:43.950Z,54.11
2022-08-25T20:10:08.060Z,54.57
2022-08-25T20:14:30.121Z,54.24
2022-08-25T20:18:46.042Z,55.30
2022-08-25T20:23:21.083Z,55.70
2022-08-25T20:27:41.539Z,55.15
2022-08-25T20:31:57.567Z,55.60
2022-08-25T20:36:17.676Z,56.33
2022-08-25T20:40:35.062Z,56.79
2022-08-25T20:44:53.678Z,56.62
2022-08-25T20:49:09.628Z,56.49
2022-08-25T20:53:26.070Z,56.15
2022-08-25T20:57:42.244Z,56.77
2022-08-25T21:01:59.525Z,56.78
2022-08-25T21:06:17.148Z,57.31
2022-08-25T21:10:33.798Z,57.37
2022-08-25T21:14:50.862Z,57.61
2022-08-25T21:19:08.836Z,56.72
2022-08-25T21:23:26.877Z,56.11
2022-08-25T21:27:43.632Z,56.48
2022-08-25T21:32:00.001Z,55.81
2022-08-25T21:36:17.010Z,56.63
2022-08-25T21:40:37.098Z,56.11
2022-08-25T21:44:53.262Z,56.75
2022-08-25T21:49:09.618Z,57.71
2022-08-25T21:53:25.651Z,57.73
2022-08-25T21:57:43.878Z,58.17
2022-08-25T22:02:02.452Z,57.82
2022-08-25T22:06:21.970Z,57.91
2022-08-25T22:10:44.728Z,57.41
2022-08-25T22:15:00.808Z,57.32
2022-08-25T22:19:17.508Z,57.26
2022-08-25T22:23:33.470Z,57.84
2022-08-25T22:28:00.470Z,57.95
2022-08-25T22:32:16.578Z,58.43
2022-08-25T22:36:37.385Z,58.54
2022-08-25T22:40:53.379Z,58.94
2022-08-25T22:45:11.240Z,59.31
2022-08-25T22:49:29.277Z,58.81
2022-08-25T22:53:46.738Z,58.72
2022-08-25T22:58:02.912Z,58.87
2022-08-25T23:02:18.973Z,59.35
2022-08-25T23:06:35.854Z,59.90
2022-08-25T23:10:54.232Z,59.99
2022-08-25T23:15:14.161Z,59.86
2022-08-25T23:19:30.277Z,60.66
2022-08-25T23:23:47.997Z,60.83
2022-08-25T23:28:05.098Z,60.62
2022-08-25T23:32:21.427Z,61.32
2022-08-25T23:36:37.478Z,61.32
2022-08-25T23:40:53.552Z,61.08
2022-08-25T23:45:10.676Z,61.51
2022-08-25T23:49:27.399Z,60.62
2022-08-25T23:53:43.577Z,61.32
2022-08-25T23:57:59.729Z,61.51
